Weather at Newhall Airport [CLOSED]

Public forecast

Using degrees Fahrenheit for public forecast. Weather courtesy of forecast.io.

Closest aviation weather report (METAR) to Newhall Airport

Report is more than 2 hours old.

Closest report is Whiteman Airport, 10.7 nm (19.8 km) SE. Retrieved 2021/11/29 03:50 UTC (5 hours ago):

KWHP 290350Z 00000KT 10SM SKC 17/M04 A3017

Closest aviation forecast (TAF) to Newhall Airport

Closest forecast is Van Nuys Airport, 11.7 nm (21.6 km) SSE. Retrieved 2021/11/29 06:30 UTC (2 hours ago):

TAF KVNY 290528Z 2906/3006 VRB03KT P6SM SKC FM292200 14006KT P6SM SKC FM300200 VRB03KT P6SM SKC